Time;durP1;ratioP1;P1;durP2;ratioP2;P2;SDS_P1;SDS_P2;PMS_P1;PMS_P2;Temp;Humidity;BMP_temperature;BMP_pressure;BME280_temperature;BME280_humidity;BME280_pressure;Samples;Min_cycle;Max_cycle;Signal;HPM_P1;HPM_P2
2023/05/26 05:51:00;;;;;;;17.85;4.90;;;;;;;;;;10507941;28;20519;-82
2023/05/26 05:56:01;;;;;;;14.13;4.40;;;;;;;;;;10509179;28;20025;-81
2023/05/26 06:01:02;;;;;;;10.50;3.00;;;;;;;;;;10527412;28;20036;-81
2023/05/26 06:06:03;;;;;;;12.82;3.15;;;;;;;;;;10514815;28;20029;-82
2023/05/26 06:11:04;;;;;;;;;;;;;;;;;;10507879;28;20027;-82
2023/05/26 06:16:05;;;;;;;8.40;2.65;;;;;;;;;;10507921;28;19911;-82
2023/05/26 06:21:07;;;;;;;12.57;4.75;;;;;;;;;;10505374;28;20127;-83
2023/05/26 06:26:08;;;;;;;13.45;4.13;;;;;;;;;;10506730;28;20121;-83
2023/05/26 06:31:08;;;;;;;;;;;;;;;;;;10509289;28;20372;-83
2023/05/26 06:36:10;;;;;;;9.07;3.13;;;;;;;;;;10506620;28;19905;-83
2023/05/26 06:41:11;;;;;;;7.80;2.83;;;;;;;;;;10506824;28;20017;-83
2023/05/26 06:46:12;;;;;;;9.55;3.13;;;;;;;;;;10514953;28;20156;-83
2023/05/26 06:51:13;;;;;;;13.88;3.85;;;;;;;;;;10507632;28;20390;-82
2023/05/26 06:56:14;;;;;;;15.10;4.45;;;;;;;;;;10505501;28;20020;-83
2023/05/26 07:01:15;;;;;;;14.80;4.65;;;;;;;;;;10488129;28;20044;-82
2023/05/26 07:06:16;;;;;;;7.38;2.88;;;;;;;;;;10476627;28;20111;-83
2023/05/26 07:11:17;;;;;;;13.63;4.50;;;;;;;;;;10476886;28;20036;-81
2023/05/26 07:16:19;;;;;;;15.90;4.32;;;;;;;;;;10472105;28;20032;-80
2023/05/26 07:21:21;;;;;;;17.23;5.28;;;;;;;;;;10475827;28;20033;-81
2023/05/26 07:26:22;;;;;;;12.75;3.60;;;;;;;;;;10473880;28;20025;-81
2023/05/26 07:31:23;;;;;;;9.50;3.10;;;;;;;;;;10474851;28;20052;-80
2023/05/26 07:36:25;;;;;;;15.82;4.88;;;;;;;;;;10473010;28;20103;-80
2023/05/26 07:41:26;;;;;;;15.82;4.93;;;;;;;;;;10474216;28;20037;-81
2023/05/26 07:46:27;;;;;;;14.20;4.43;;;;;;;;;;10474565;28;20075;-81
2023/05/26 07:51:28;;;;;;;13.32;4.05;;;;;;;;;;10474700;28;20087;-82
2023/05/26 07:56:29;;;;;;;13.45;4.18;;;;;;;;;;10472850;28;20061;-82
2023/05/26 08:01:30;;;;;;;16.33;5.22;;;;;;;;;;10474621;28;20109;-81
2023/05/26 08:06:31;;;;;;;7.85;3.25;;;;;;;;;;10474436;28;20071;-81
2023/05/26 08:11:32;;;;;;;13.35;4.45;;;;;;;;;;10473712;28;20045;-82
2023/05/26 08:16:33;;;;;;;10.40;3.53;;;;;;;;;;10474375;28;20490;-82
2023/05/26 08:21:35;;;;;;;16.65;5.68;;;;;;;;;;10473453;28;20170;-82
2023/05/26 08:26:36;;;;;;;15.40;4.40;;;;;;;;;;10472557;28;20036;-82
2023/05/26 08:31:37;;;;;;;18.55;5.45;;;;;;;;;;10470162;28;20021;-81
2023/05/26 08:36:38;;;;;;;26.42;8.73;;;;;;;;;;10480581;28;20092;-81
2023/05/26 08:41:48;;;;;;;15.00;5.22;;;;;;;;;;10476253;28;20478;-81
2023/05/26 08:46:55;;;;;;;18.77;5.03;;;;;;;;;;10472123;28;20128;-81
2023/05/26 08:52:00;;;;;;;14.20;4.70;;;;;;;;;;10482314;28;20041;-81
2023/05/26 08:57:04;;;;;;;12.30;4.40;;;;;;;;;;10480244;28;20029;-81
2023/05/26 09:02:05;;;;;;;15.32;4.70;;;;;;;;;;10471995;28;20021;-80
2023/05/26 09:07:06;;;;;;;15.00;4.47;;;;;;;;;;10475994;28;20080;-82
2023/05/26 09:12:11;;;;;;;17.45;6.22;;;;;;;;;;10478918;28;20028;-82
2023/05/26 09:17:13;;;;;;;16.63;5.20;;;;;;;;;;10474439;28;20129;-82
2023/05/26 09:22:14;;;;;;;15.00;5.80;;;;;;;;;;10473774;28;20426;-81
2023/05/26 09:27:22;;;;;;;9.23;4.00;;;;;;;;;;10480880;28;20025;-82
2023/05/26 09:32:30;;;;;;;14.15;5.05;;;;;;;;;;10489388;28;20100;-82
2023/05/26 09:37:31;;;;;;;16.67;5.40;;;;;;;;;;10477602;28;20029;-82
2023/05/26 09:42:33;;;;;;;17.05;6.13;;;;;;;;;;10485279;28;20056;-82
2023/05/26 09:47:35;;;;;;;16.52;5.13;;;;;;;;;;10483788;28;20033;-82
2023/05/26 09:52:42;;;;;;;13.35;6.05;;;;;;;;;;10470140;28;20037;-82
2023/05/26 09:57:46;;;;;;;14.88;4.38;;;;;;;;;;10472275;28;20029;-82
2023/05/26 10:02:49;;;;;;;17.33;4.30;;;;;;;;;;10472721;28;20021;-81
2023/05/26 10:07:52;;;;;;;15.38;4.20;;;;;;;;;;10472787;28;20529;-81
2023/05/26 10:12:53;;;;;;;13.30;4.97;;;;;;;;;;10470531;28;20025;-83
2023/05/26 10:17:56;;;;;;;17.30;5.63;;;;;;;;;;10470754;28;20092;-81
2023/05/26 10:23:06;;;;;;;11.18;4.10;;;;;;;;;;10472063;28;20420;-81
2023/05/26 10:28:07;;;;;;;11.73;4.77;;;;;;;;;;10470978;28;20096;-81
2023/05/26 10:33:09;;;;;;;14.40;4.97;;;;;;;;;;10470523;28;20029;-82
2023/05/26 10:38:11;;;;;;;14.50;5.55;;;;;;;;;;10479340;28;20028;-82
2023/05/26 10:43:13;;;;;;;14.05;5.07;;;;;;;;;;10479382;28;20095;-81
2023/05/26 10:48:17;;;;;;;18.25;6.05;;;;;;;;;;10486914;28;20033;-81
2023/05/26 10:53:25;;;;;;;13.02;4.97;;;;;;;;;;10482292;28;20471;-81
2023/05/26 10:58:29;;;;;;;11.77;4.22;;;;;;;;;;10474188;28;20032;-83
2023/05/26 11:03:31;;;;;;;15.27;5.20;;;;;;;;;;10475354;28;20029;-81
2023/05/26 11:08:36;;;;;;;14.13;4.57;;;;;;;;;;10482808;28;20067;-82
2023/05/26 11:13:48;;;;;;;11.90;4.72;;;;;;;;;;10475190;28;20040;-83
2023/05/26 11:18:50;;;;;;;12.93;3.97;;;;;;;;;;10475956;28;20029;-82
2023/05/26 11:23:52;;;;;;;12.63;4.65;;;;;;;;;;10475688;28;20483;-82
2023/05/26 11:28:54;;;;;;;11.82;4.40;;;;;;;;;;10474694;28;20447;-82
2023/05/26 11:33:56;;;;;;;12.70;4.35;;;;;;;;;;10475713;28;20027;-82
2023/05/26 11:39:00;;;;;;;10.60;4.20;;;;;;;;;;10476037;28;20029;-83
2023/05/26 11:44:08;;;;;;;12.20;3.90;;;;;;;;;;10475745;28;20032;-83
2023/05/26 11:49:16;;;;;;;11.20;3.92;;;;;;;;;;10487084;28;20032;-84
2023/05/26 11:54:18;;;;;;;10.30;3.80;;;;;;;;;;10485104;28;20029;-82
2023/05/26 11:59:20;;;;;;;10.00;3.53;;;;;;;;;;10487844;28;20129;-83
2023/05/26 12:04:28;;;;;;;11.02;4.43;;;;;;;;;;10451647;22;20041;-84
2023/05/26 12:09:29;;;;;;;10.93;3.58;;;;;;;;;;10430272;28;20095;-85
2023/05/26 12:14:30;;;;;;;9.52;3.15;;;;;;;;;;10428628;28;20462;-84
2023/05/26 12:19:31;;;;;;;8.25;3.53;;;;;;;;;;10428408;28;20490;-84
2023/05/26 12:24:36;;;;;;;10.93;3.88;;;;;;;;;;10427006;28;20116;-84
2023/05/26 12:29:38;;;;;;;10.57;3.75;;;;;;;;;;10431343;28;20018;-84
2023/05/26 12:34:40;;;;;;;9.27;3.42;;;;;;;;;;10428341;28;20033;-84
2023/05/26 12:39:41;;;;;;;9.10;3.47;;;;;;;;;;10432152;28;20070;-84
2023/05/26 12:44:42;;;;;;;11.18;3.78;;;;;;;;;;10426179;28;20030;-84
2023/05/26 12:49:45;;;;;;;9.20;3.95;;;;;;;;;;10428650;28;20096;-84
2023/05/26 12:54:46;;;;;;;11.25;4.43;;;;;;;;;;10427047;28;20025;-84
2023/05/26 12:59:47;;;;;;;10.27;4.15;;;;;;;;;;10428098;28;20052;-86
2023/05/26 13:04:48;;;;;;;10.77;5.03;;;;;;;;;;10430651;28;20033;-84
2023/05/26 13:09:49;;;;;;;13.32;3.65;;;;;;;;;;10428985;28;20029;-84
2023/05/26 13:14:51;;;;;;;8.07;3.50;;;;;;;;;;10429330;28;20022;-83
2023/05/26 13:19:55;;;;;;;14.43;3.90;;;;;;;;;;10427722;28;20056;-84
2023/05/26 13:24:56;;;;;;;8.52;3.95;;;;;;;;;;10427869;28;20064;-84
2023/05/26 13:29:57;;;;;;;10.20;3.90;;;;;;;;;;10432624;28;20053;-84
2023/05/26 13:34:58;;;;;;;12.73;4.32;;;;;;;;;;10427638;28;20542;-84
2023/05/26 13:39:59;;;;;;;10.75;4.22;;;;;;;;;;10427198;28;20128;-84
2023/05/26 13:45:02;;;;;;;8.23;3.88;;;;;;;;;;10424667;28;20018;-84
2023/05/26 13:50:04;;;;;;;9.57;3.60;;;;;;;;;;10422796;28;20025;-84
2023/05/26 13:55:05;;;;;;;12.45;5.53;;;;;;;;;;10432346;28;20033;-83
2023/05/26 14:00:08;;;;;;;8.30;3.30;;;;;;;;;;10454435;28;20018;-84
2023/05/26 14:05:11;;;;;;;11.68;3.63;;;;;;;;;;10425250;28;20042;-84
2023/05/26 14:10:12;;;;;;;12.82;4.03;;;;;;;;;;10435111;28;20021;-84
2023/05/26 14:15:14;;;;;;;7.47;3.22;;;;;;;;;;10438409;28;20041;-84
2023/05/26 14:20:15;;;;;;;9.85;3.17;;;;;;;;;;10437672;28;20026;-84
2023/05/26 14:25:16;;;;;;;14.07;4.40;;;;;;;;;;10434375;28;20343;-85
2023/05/26 14:30:22;;;;;;;11.95;6.03;;;;;;;;;;10423573;28;20053;-83
2023/05/26 14:35:23;;;;;;;11.27;3.40;;;;;;;;;;10439127;28;20026;-84
2023/05/26 14:40:29;;;;;;;9.38;3.90;;;;;;;;;;10436939;28;20140;-83
2023/05/26 14:45:30;;;;;;;8.27;3.45;;;;;;;;;;10435786;28;20036;-83
2023/05/26 14:50:32;;;;;;;14.23;3.80;;;;;;;;;;10437448;28;20053;-85
2023/05/26 14:55:34;;;;;;;13.75;4.90;;;;;;;;;;10432747;28;20041;-83
2023/05/26 15:00:35;;;;;;;7.93;2.92;;;;;;;;;;10434418;28;20033;-83
2023/05/26 15:05:36;;;;;;;10.88;4.10;;;;;;;;;;10435735;28;20068;-83
2023/05/26 15:10:38;;;;;;;8.85;3.50;;;;;;;;;;10432555;28;20048;-83
2023/05/26 15:15:39;;;;;;;10.48;3.25;;;;;;;;;;10429374;28;20025;-83
2023/05/26 15:20:41;;;;;;;12.07;4.05;;;;;;;;;;10432308;28;20435;-83
2023/05/26 15:25:42;;;;;;;10.00;3.40;;;;;;;;;;10431241;28;20029;-82
2023/05/26 15:30:43;;;;;;;9.63;3.38;;;;;;;;;;10434472;28;20113;-83
2023/05/26 15:35:44;;;;;;;11.05;3.97;;;;;;;;;;10435184;28;20025;-83
2023/05/26 15:40:45;;;;;;;12.82;3.83;;;;;;;;;;10437156;28;20025;-84
2023/05/26 15:45:46;;;;;;;9.50;3.65;;;;;;;;;;10439147;28;20032;-83
2023/05/26 15:50:47;;;;;;;11.18;3.58;;;;;;;;;;10433299;28;20032;-84
2023/05/26 15:55:48;;;;;;;10.75;3.55;;;;;;;;;;10433810;28;20033;-83
2023/05/26 16:00:50;;;;;;;10.80;3.50;;;;;;;;;;10431614;28;20467;-83
2023/05/26 16:05:51;;;;;;;10.68;3.35;;;;;;;;;;10428898;28;20029;-83
2023/05/26 16:10:52;;;;;;;9.18;2.97;;;;;;;;;;10428927;28;20032;-84
2023/05/26 16:15:53;;;;;;;6.43;3.40;;;;;;;;;;10428718;28;20018;-83
2023/05/26 16:20:54;;;;;;;9.45;3.13;;;;;;;;;;10429443;28;20076;-80
2023/05/26 16:25:55;;;;;;;11.13;4.82;;;;;;;;;;10424842;28;20057;-85
2023/05/26 16:31:41;;;;;;;8.48;2.60;;;;;;;;;;10423567;28;20024;-85
2023/05/26 16:36:43;;;;;;;6.53;2.78;;;;;;;;;;10412819;28;20037;-85
2023/05/26 16:42:09;;;;;;;7.13;2.97;;;;;;;;;;10424481;28;20021;-85
2023/05/26 16:47:34;;;;;;;7.13;2.85;;;;;;;;;;10427226;28;20108;-85
2023/05/26 16:52:35;;;;;;;7.45;2.90;;;;;;;;;;10411899;28;20021;-85
2023/05/26 16:57:38;;;;;;;7.30;2.83;;;;;;;;;;10448894;28;20025;-85
2023/05/26 17:02:40;;;;;;;7.70;2.70;;;;;;;;;;10427010;28;20039;-85
2023/05/26 17:07:47;;;;;;;9.27;5.68;;;;;;;;;;10422929;28;20121;-84
2023/05/26 17:18:25;;;;;;;6.15;3.08;;;;;;;;;;10419355;28;20029;-85
2023/05/26 17:23:29;;;;;;;8.95;3.05;;;;;;;;;;10420058;28;20029;-85
2023/05/26 17:28:30;;;;;;;8.65;2.70;;;;;;;;;;10419138;28;20028;-85
2023/05/26 17:33:32;;;;;;;8.45;3.03;;;;;;;;;;10420330;28;20112;-85
2023/05/26 17:38:39;;;;;;;8.85;3.22;;;;;;;;;;10403120;28;20450;-85
2023/05/26 17:43:43;;;;;;;12.52;3.58;;;;;;;;;;10439220;28;20005;-87
2023/05/26 17:48:45;;;;;;;7.70;3.22;;;;;;;;;;10463092;28;20085;-85
2023/05/26 17:53:47;;;;;;;8.30;3.13;;;;;;;;;;10439516;28;20029;-85
2023/05/26 17:58:55;;;;;;;9.07;3.00;;;;;;;;;;10423650;28;20494;-85
2023/05/26 18:04:04;;;;;;;6.90;2.90;;;;;;;;;;10422461;28;20398;-84
2023/05/26 18:09:08;;;;;;;7.60;3.03;;;;;;;;;;10422170;28;20037;-84
2023/05/26 18:14:31;;;;;;;9.13;3.00;;;;;;;;;;10420354;28;20025;-84
2023/05/26 18:19:48;;;;;;;10.13;3.42;;;;;;;;;;10422006;28;20022;-84
2023/05/26 18:24:49;;;;;;;4.93;2.25;;;;;;;;;;10421835;28;20029;-84
2023/05/26 18:29:50;;;;;;;11.13;3.35;;;;;;;;;;10422552;28;20025;-84
2023/05/26 18:34:53;;;;;;;8.50;2.83;;;;;;;;;;10423867;28;20121;-83
2023/05/26 18:40:22;;;;;;;11.88;3.17;;;;;;;;;;10420114;28;20427;-84
2023/05/26 18:45:47;;;;;;;8.55;3.00;;;;;;;;;;10422586;28;20452;-84
2023/05/26 18:50:48;;;;;;;6.15;2.47;;;;;;;;;;10421617;28;20044;-84
2023/05/26 18:55:51;;;;;;;9.10;3.53;;;;;;;;;;10422780;28;20044;-84
2023/05/26 19:06:22;;;;;;;8.27;2.50;;;;;;;;;;10449135;28;20040;-83
2023/05/26 19:11:26;;;;;;;8.77;2.67;;;;;;;;;;10463445;28;20060;-83
